Map

Track Data

SID SEASON NUMBER BASIN SUBBASIN NAME ISO_TIME NATURE LAT LON WMO_WIND WMO_PRES WMO_AGENCY TRACK_TYPE DIST2LAND LANDFALL IFLAG USA_AGENCY USA_ATCF_ID USA_LAT USA_LON USA_RECORD USA_STATUS USA_WIND USA_PRES USA_SSHS USA_R34_NE USA_R34_SE USA_R34_SW USA_R34_NW USA_R50_NE USA_R50_SE USA_R50_SW USA_R50_NW USA_R64_NE USA_R64_SE USA_R64_SW USA_R64_NW USA_POCI USA_ROCI USA_RMW USA_EYE TOKYO_LAT TOKYO_LON TOKYO_GRADE TOKYO_WIND TOKYO_PRES TOKYO_R50_DIR TOKYO_R50_LONG TOKYO_R50_SHORT TOKYO_R30_DIR TOKYO_R30_LONG TOKYO_R30_SHORT TOKYO_LAND CMA_LAT CMA_LON CMA_CAT CMA_WIND CMA_PRES HKO_LAT HKO_LON HKO_CAT HKO_WIND HKO_PRES NEWDELHI_LAT NEWDELHI_LON NEWDELHI_GRADE NEWDELHI_WIND NEWDELHI_PRES NEWDELHI_CI NEWDELHI_DP NEWDELHI_POCI REUNION_LAT REUNION_LON REUNION_TYPE REUNION_WIND REUNION_PRES REUNION_TNUM REUNION_CI REUNION_RMW REUNION_R34_NE REUNION_R34_SE REUNION_R34_SW REUNION_R34_NW REUNION_R50_NE REUNION_R50_SE REUNION_R50_SW REUNION_R50_NW REUNION_R64_NE REUNION_R64_SE REUNION_R64_SW REUNION_R64_NW BOM_LAT BOM_LON BOM_TYPE BOM_WIND BOM_PRES BOM_TNUM BOM_CI BOM_RMW BOM_R34_NE BOM_R34_SE BOM_R34_SW BOM_R34_NW BOM_R50_NE BOM_R50_SE BOM_R50_SW BOM_R50_NW BOM_R64_NE BOM_R64_SE BOM_R64_SW BOM_R64_NW BOM_ROCI BOM_POCI BOM_EYE BOM_POS_METHOD BOM_PRES_METHOD NADI_LAT NADI_LON NADI_CAT NADI_WIND NADI_PRES WELLINGTON_LAT WELLINGTON_LON WELLINGTON_WIND WELLINGTON_PRES DS824_LAT DS824_LON DS824_STAGE DS824_WIND DS824_PRES TD9636_LAT TD9636_LON TD9636_STAGE TD9636_WIND TD9636_PRES TD9635_LAT TD9635_LON TD9635_WIND TD9635_PRES TD9635_ROCI NEUMANN_LAT NEUMANN_LON NEUMANN_CLASS NEUMANN_WIND NEUMANN_PRES MLC_LAT MLC_LON MLC_CLASS MLC_WIND MLC_PRES USA_GUST BOM_GUST BOM_GUST_PER REUNION_GUST REUNION_GUST_PER USA_SEAHGT USA_SEARAD_NE USA_SEARAD_SE USA_SEARAD_SW USA_SEARAD_NW STORM_SPEED STORM_DIR
1963232N11313 1963 71 NA NA BEULAH 1963-08-20 00:00:00 TS 11.2000 -47.4000 25 hurdat_atl main 882 877 O_____________ hurdat_atl AL021963 11.2000 -47.4000 TD 25 -1 14 310
1963232N11313 1963 71 NA NA BEULAH 1963-08-20 03:00:00 TS 11.6502 -47.9497 main 893 883 P_____________ AL021963 11.6502 -47.9497 TD 25 -1 14 310
1963232N11313 1963 71 NA NA BEULAH 1963-08-20 06:00:00 TS 12.1000 -48.5000 25 hurdat_atl main 894 889 O_____________ hurdat_atl AL021963 12.1000 -48.5000 TD 25 -1 14 310
1963232N11313 1963 71 NA NA BEULAH 1963-08-20 09:00:00 TS 12.5499 -49.0502 main 903 903 P_____________ AL021963 12.5499 -49.0502 TD 27 -1 14 310
1963232N11313 1963 71 NA NA BEULAH 1963-08-20 12:00:00 TS 13.0000 -49.6000 30 hurdat_atl main 931 931 O_____________ hurdat_atl AL021963 13.0000 -49.6000 TD 30 -1 14 310
1963232N11313 1963 71 NA NA BEULAH 1963-08-20 15:00:00 TS 13.4574 -50.1502 main 957 957 P_____________ AL021963 13.4574 -50.1502 TD 30 -1 14 310
1963232N11313 1963 71 NA NA BEULAH 1963-08-20 18:00:00 TS 13.9000 -50.7000 30 1006 hurdat_atl main 974 970 O_____________ hurdat_atl AL021963 13.9000 -50.7000 TD 30 1006 -1 14 309
1963232N11313 1963 71 NA NA BEULAH 1963-08-20 21:00:00 TS 14.3149 -51.2576 main 992 992 P_____________ AL021963 14.3149 -51.2576 TD 30 -1 13 307
1963232N11313 1963 71 NA NA BEULAH 1963-08-21 00:00:00 TS 14.7000 -51.8000 30 hurdat_atl main 1019 1017 O_____________ hurdat_atl AL021963 14.7000 -51.8000 TD 30 -1 13 306
1963232N11313 1963 71 NA NA BEULAH 1963-08-21 03:00:00 TS 15.0649 -52.3152 main 1051 1032 P_____________ AL021963 15.0649 -52.3152 TD 32 -1 12 306
1963232N11313 1963 71 NA NA BEULAH 1963-08-21 06:00:00 TS 15.4000 -52.8000 35 hurdat_atl main 1032 1007 O_____________ hurdat_atl AL021963 15.4000 -52.8000 TS 35 0 11 306
1963232N11313 1963 71 NA NA BEULAH 1963-08-21 09:00:00 TS 15.7149 -53.2577 main 1004 987 P_____________ AL021963 15.7149 -53.2577 TS 37 0 11 305
1963232N11313 1963 71 NA NA BEULAH 1963-08-21 12:00:00 TS 16.0000 -53.7000 40 hurdat_atl main 987 967 O_____________ hurdat_atl AL021963 16.0000 -53.7000 TS 40 0 10 302
1963232N11313 1963 71 NA NA BEULAH 1963-08-21 15:00:00 TS 16.2649 -54.1576 main 966 948 P_____________ AL021963 16.2649 -54.1576 TS 42 0 10 300
1963232N11313 1963 71 NA NA BEULAH 1963-08-21 18:00:00 TS 16.5000 -54.6000 45 1005 hurdat_atl main 948 933 O_____________ hurdat_atl AL021963 16.5000 -54.6000 TS 45 1005 0 9 298
1963232N11313 1963 71 NA NA BEULAH 1963-08-21 21:00:00 TS 16.7075 -55.0226 main 933 919 P_____________ AL021963 16.7075 -55.0226 TS 45 0 9 298
1963232N11313 1963 71 NA NA BEULAH 1963-08-22 00:00:00 TS 16.9000 -55.4000 45 hurdat_atl main 920 913 O_____________ hurdat_atl AL021963 16.9000 -55.4000 TS 45 0 7 300
1963232N11313 1963 71 NA NA BEULAH 1963-08-22 03:00:00 TS 17.0848 -55.6928 main 916 910 P_____________ AL021963 17.0848 -55.6928 TS 50 0 7 305
1963232N11313 1963 71 NA NA BEULAH 1963-08-22 06:00:00 TS 17.3000 -56.0000 55 hurdat_atl main 914 908 O_____________ hurdat_atl AL021963 17.3000 -56.0000 TS 55 0 9 305
1963232N11313 1963 71 NA NA BEULAH 1963-08-22 09:00:00 TS 17.5700 -56.4276 main 917 910 P_____________ AL021963 17.5700 -56.4276 TS 57 0 10 305
1963232N11313 1963 71 NA NA BEULAH 1963-08-22 12:00:00 TS 17.9000 -56.9000 60 994 hurdat_atl main 919 865 O_____________ hurdat_atl AL021963 17.9000 -56.9000 TS 60 994 0 12 308
1963232N11313 1963 71 NA NA BEULAH 1963-08-22 15:00:00 TS 18.2776 -57.3799 main 865 822 P_____________ AL021963 18.2776 -57.3799 TS 62 993 0 12 313
1963232N11313 1963 71 NA NA BEULAH 1963-08-22 18:00:00 TS 18.7000 -57.8000 65 hurdat_atl main 822 793 I_____________ hurdat_atl AL021963 18.7000 -57.8000 HU 65 992 1 11 322
1963232N11313 1963 71 NA NA BEULAH 1963-08-22 21:00:00 TS 19.1423 -58.0803 main 793 777 P_____________ AL021963 19.1423 -58.0803 HU 67 991 1 10 332
1963232N11313 1963 71 NA NA BEULAH 1963-08-23 00:00:00 TS 19.6000 -58.3000 70 991 hurdat_atl main 779 756 O_____________ hurdat_atl AL021963 19.6000 -58.3000 HU 70 991 1 10 334
1963232N11313 1963 71 NA NA BEULAH 1963-08-23 03:00:00 TS 20.0575 -58.5650 main 758 747 P_____________ AL021963 20.0575 -58.5650 HU 75 984 1 10 332
1963232N11313 1963 71 NA NA BEULAH 1963-08-23 06:00:00 TS 20.5000 -58.8000 80 977 hurdat_atl main 750 741 O_____________ hurdat_atl AL021963 20.5000 -58.8000 HU 80 977 1 9 336
1963232N11313 1963 71 NA NA BEULAH 1963-08-23 09:00:00 TS 20.9150 -58.9801 main 745 744 P_____________ AL021963 20.9150 -58.9801 HU 85 973 2 9 341
1963232N11313 1963 71 NA NA BEULAH 1963-08-23 12:00:00 TS 21.3000 -59.1000 90 hurdat_atl main 753 753 I_____________ hurdat_atl AL021963 21.3000 -59.1000 HU 90 970 2 8 348
1963232N11313 1963 71 NA NA BEULAH 1963-08-23 15:00:00 TS 21.6650 -59.1577 main 763 763 P_____________ AL021963 21.6650 -59.1577 HU 92 966 2 7 352
1963232N11313 1963 71 NA NA BEULAH 1963-08-23 18:00:00 TS 22.0000 -59.2000 95 963 hurdat_atl main 779 779 O_____________ hurdat_atl AL021963 22.0000 -59.2000 HU 95 963 2 7 349
1963232N11313 1963 71 NA NA BEULAH 1963-08-23 21:00:00 TS 22.3150 -59.2925 main 788 788 P_____________ AL021963 22.3150 -59.2925 HU 95 962 2 6 343
1963232N11313 1963 71 NA NA BEULAH 1963-08-24 00:00:00 TS 22.6000 -59.4000 95 962 hurdat_atl main 798 796 O_____________ hurdat_atl AL021963 22.6000 -59.4000 HU 95 962 2 6 340
1963232N11313 1963 71 NA NA BEULAH 1963-08-24 03:00:00 TS 22.8500 -59.5075 main 809 808 P_____________ AL021963 22.8500 -59.5075 HU 100 960 3 5 340
1963232N11313 1963 71 NA NA BEULAH 1963-08-24 06:00:00 TS 23.1000 -59.6000 105 958 hurdat_atl main 815 815 O_____________ hurdat_atl AL021963 23.1000 -59.6000 HU 105 958 3 6 346
1963232N11313 1963 71 NA NA BEULAH 1963-08-24 09:00:00 TS 23.3925 -59.6576 main 829 829 P_____________ AL021963 23.3925 -59.6576 HU 102 959 3 6 352
1963232N11313 1963 71 NA NA BEULAH 1963-08-24 12:00:00 TS 23.7000 -59.7000 100 961 hurdat_atl main 851 851 O_____________ hurdat_atl AL021963 23.7000 -59.7000 HU 100 961 3 6 352
1963232N11313 1963 71 NA NA BEULAH 1963-08-24 15:00:00 TS 24.0075 -59.7426 main 874 874 P_____________ AL021963 24.0075 -59.7426 HU 100 961 3 6 352
1963232N11313 1963 71 NA NA BEULAH 1963-08-24 18:00:00 TS 24.3000 -59.8000 100 961 hurdat_atl main 891 891 O_____________ hurdat_atl AL021963 24.3000 -59.8000 HU 100 961 3 5 345
1963232N11313 1963 71 NA NA BEULAH 1963-08-24 21:00:00 TS 24.5350 -59.8926 main 901 901 P_____________ AL021963 24.5350 -59.8926 HU 95 2 5 340
1963232N11313 1963 71 NA NA BEULAH 1963-08-25 00:00:00 TS 24.8000 -60.0000 90 hurdat_atl main 920 920 O_____________ hurdat_atl AL021963 24.8000 -60.0000 HU 90 2 7 343
1963232N11313 1963 71 NA NA BEULAH 1963-08-25 03:00:00 TS 25.1625 -60.1075 main 948 948 P_____________ AL021963 25.1625 -60.1075 HU 85 2 8 347
1963232N11313 1963 71 NA NA BEULAH 1963-08-25 06:00:00 TS 25.6000 -60.2000 80 hurdat_atl main 978 978 O_____________ hurdat_atl AL021963 25.6000 -60.2000 HU 80 1 9 351
1963232N11313 1963 71 NA NA BEULAH 1963-08-25 09:00:00 TS 26.0700 -60.2576 main 1018 1018 P_____________ AL021963 26.0700 -60.2576 HU 77 1 10 355
1963232N11313 1963 71 NA NA BEULAH 1963-08-25 12:00:00 TS 26.6000 -60.3000 75 972 hurdat_atl main 1065 1065 O_____________ hurdat_atl AL021963 26.6000 -60.3000 HU 75 972 1 11 354
1963232N11313 1963 71 NA NA BEULAH 1963-08-25 15:00:00 TS 27.1850 -60.3795 main 1118 1118 P_____________ AL021963 27.1850 -60.3795 HU 72 974 1 12 356
1963232N11313 1963 71 NA NA BEULAH 1963-08-25 18:00:00 TS 27.8000 -60.4000 70 976 hurdat_atl main 1177 1177 O_____________ hurdat_atl AL021963 27.8000 -60.4000 HU 70 976 1 12 3
1963232N11313 1963 71 NA NA BEULAH 1963-08-25 21:00:00 TS 28.3848 -60.3170 main 1241 1241 P_____________ AL021963 28.3848 -60.3170 HU 70 977 1 12 12
1963232N11313 1963 71 NA NA BEULAH 1963-08-26 00:00:00 TS 29.0000 -60.1000 70 978 hurdat_atl main 1309 1309 O_____________ hurdat_atl AL021963 29.0000 -60.1000 HU 70 978 1 14 21
1963232N11313 1963 71 NA NA BEULAH 1963-08-26 03:00:00 TS 29.7000 -59.7527 main 1392 1392 P_____________ AL021963 29.7000 -59.7527 HU 70 979 1 16 26
1963232N11313 1963 71 NA NA BEULAH 1963-08-26 06:00:00 TS 30.4000 -59.3000 70 hurdat_atl main 1483 1483 I_____________ hurdat_atl AL021963 30.4000 -59.3000 HU 70 980 1 15 31
1963232N11313 1963 71 NA NA BEULAH 1963-08-26 09:00:00 TS 31.0072 -58.8364 main 1504 1459 P_____________ AL021963 31.0072 -58.8364 HU 70 981 1 15 36
1963232N11313 1963 71 NA NA BEULAH 1963-08-26 12:00:00 TS 31.6000 -58.3000 70 983 hurdat_atl main 1459 1421 O_____________ hurdat_atl AL021963 31.6000 -58.3000 HU 70 983 1 16 39
1963232N11313 1963 71 NA NA BEULAH 1963-08-26 15:00:00 TS 32.2195 -57.7008 main 1421 1382 P_____________ AL021963 32.2195 -57.7008 HU 70 981 1 17 40
1963232N11313 1963 71 NA NA BEULAH 1963-08-26 18:00:00 TS 32.9000 -57.0000 70 979 hurdat_atl main 1382 1348 O_____________ hurdat_atl AL021963 32.9000 -57.0000 HU 70 979 1 19 42
1963232N11313 1963 71 NA NA BEULAH 1963-08-26 21:00:00 TS 33.6625 -56.1793 main 1344 1288 P_____________ AL021963 33.6625 -56.1793 HU 70 1 21 41
1963232N11313 1963 71 NA NA BEULAH 1963-08-27 00:00:00 TS 34.5000 -55.3000 70 hurdat_atl main 1288 1234 O_____________ hurdat_atl AL021963 34.5000 -55.3000 HU 70 1 22 40
1963232N11313 1963 71 NA NA BEULAH 1963-08-27 03:00:00 TS 35.3625 -54.4190 main 1227 1156 P_____________ AL021963 35.3625 -54.4190 HU 70 1 23 38
1963232N11313 1963 71 NA NA BEULAH 1963-08-27 06:00:00 TS 36.3000 -53.6000 70 hurdat_atl main 1145 1045 O_____________ hurdat_atl AL021963 36.3000 -53.6000 HU 70 1 22 33
1963232N11313 1963 71 NA NA BEULAH 1963-08-27 09:00:00 TS 37.2443 -52.9154 main 1045 925 P_____________ AL021963 37.2443 -52.9154 HU 70 1 23 26
1963232N11313 1963 71 NA NA BEULAH 1963-08-27 12:00:00 TS 38.4000 -52.3000 70 hurdat_atl main 914 764 O_____________ hurdat_atl AL021963 38.4000 -52.3000 HU 70 1 28 20
1963232N11313 1963 71 NA NA BEULAH 1963-08-27 15:00:00 TS 39.8405 -51.7420 main 765 591 P_____________ AL021963 39.8405 -51.7420 HU 70 1 34 17
1963232N11313 1963 71 NA NA BEULAH 1963-08-27 18:00:00 TS 41.6000 -51.0000 70 hurdat_atl main 582 421 O_____________ hurdat_atl AL021963 41.6000 -51.0000 HU 70 1 41 21
1963232N11313 1963 71 NA NA BEULAH 1963-08-27 21:00:00 TS 43.6701 -49.8092 main 417 367 P_____________ AL021963 43.6701 -49.8092 HU 70 1 46 25
1963232N11313 1963 71 NA NA BEULAH 1963-08-28 00:00:00 ET 45.8000 -48.3000 70 hurdat_atl main 376 372 O_____________ hurdat_atl AL021963 45.8000 -48.3000 EX 70 -4 46 28
1963232N11313 1963 71 NA NA BEULAH 1963-08-28 03:00:00 ET 47.7325 -46.6864 main 440 440 P_____________ AL021963 47.7325 -46.6864 EX 67 -4 43 32
1963232N11313 1963 71 NA NA BEULAH 1963-08-28 06:00:00 ET 49.4000 -44.9000 65 hurdat_atl main 594 594 O_____________ hurdat_atl AL021963 49.4000 -44.9000 EX 65 -4 38 39
1963232N11313 1963 71 NA NA BEULAH 1963-08-28 09:00:00 ET 50.7028 -42.9797 main 756 756 P_____________ AL021963 50.7028 -42.9797 EX 62 -4 34 46
1963232N11313 1963 71 NA NA BEULAH 1963-08-28 12:00:00 ET 51.8000 -41.0000 60 hurdat_atl main 920 831 O_____________ hurdat_atl AL021963 51.8000 -41.0000 EX 60 -4 34 47
1963232N11313 1963 71 NA NA BEULAH 1963-08-28 15:00:00 ET 53.0049 -38.9378 main 826 765 P_____________ AL021963 53.0049 -38.9378 EX 60 -4 33 48
1963232N11313 1963 71 NA NA BEULAH 1963-08-28 18:00:00 ET 54.0000 -37.0000 60 hurdat_atl main 767 753 O_____________ hurdat_atl AL021963 54.0000 -37.0000 EX 60 -4 26 52
1963232N11313 1963 71 NA NA BEULAH 1963-08-28 21:00:00 ET 54.5816 -35.4791 main 758 758 P_____________ AL021963 54.5816 -35.4791 EX 57 -4 20 60
1963232N11313 1963 71 NA NA BEULAH 1963-08-29 00:00:00 ET 55.0000 -34.0000 55 hurdat_atl main 779 779 O_____________ hurdat_atl AL021963 55.0000 -34.0000 EX 55 -4 21 63
1963232N11313 1963 71 NA NA BEULAH 1963-08-29 03:00:00 ET 55.5411 -32.1523 main 817 817 P_____________ AL021963 55.5411 -32.1523 EX 55 -4 25 66
1963232N11313 1963 71 NA NA BEULAH 1963-08-29 06:00:00 ET 56.0000 -30.0000 55 hurdat_atl main 888 882 O_____________ hurdat_atl AL021963 56.0000 -30.0000 EX 55 -4 27 75
1963232N11313 1963 71 NA NA BEULAH 1963-08-29 09:00:00 ET 56.2557 -27.4935 main 870 829 P_____________ AL021963 56.2557 -27.4935 EX 55 -4 28 82
1963232N11313 1963 71 NA NA BEULAH 1963-08-29 12:00:00 ET 56.4000 -25.0000 55 hurdat_atl main 828 789 O_____________ hurdat_atl AL021963 56.4000 -25.0000 EX 55 -4 25 83
1963232N11313 1963 71 NA NA BEULAH 1963-08-29 15:00:00 ET 56.5503 -22.9217 main 777 742 P_____________ AL021963 56.5503 -22.9217 EX 55 -4 22 82
1963232N11313 1963 71 NA NA BEULAH 1963-08-29 18:00:00 ET 56.7000 -21.0000 55 hurdat_atl main 736 626 O_____________ hurdat_atl AL021963 56.7000 -21.0000 EX 55 -4 22 82
1963232N11313 1963 71 NA NA BEULAH 1963-08-29 21:00:00 ET 56.8575 -18.9257 main 625 535 P_____________ AL021963 56.8575 -18.9257 EX 55 -4 22 82
1963232N11313 1963 71 NA NA BEULAH 1963-08-30 00:00:00 ET 57.0000 -17.0000 55 hurdat_atl main 530 465 O_____________ hurdat_atl AL021963 57.0000 -17.0000 EX 55 -4 19 82
1963232N11313 1963 71 NA NA BEULAH 1963-08-30 03:00:00 ET 57.1176 -15.4246 main 460 415 P_____________ AL021963 57.1176 -15.4246 EX 55 -4 16 83
1963232N11313 1963 71 NA NA BEULAH 1963-08-30 06:00:00 ET 57.2000 -14.0000 55 hurdat_atl main 411 330 O_____________ hurdat_atl AL021963 57.2000 -14.0000 EX 55 -4 16 83
1963232N11313 1963 71 NA NA BEULAH 1963-08-30 09:00:00 ET 57.3043 -12.4704 main 324 246 P_____________ AL021963 57.3043 -12.4704 EX 55 -4 16 90
1963232N11313 1963 71 NA NA BEULAH 1963-08-30 12:00:00 ET 57.2000 -11.0000 55 hurdat_atl main 240 190 O_____________ hurdat_atl AL021963 57.2000 -11.0000 EX 55 -4 16 111
1963232N11313 1963 71 NA NA BEULAH 1963-08-30 15:00:00 ET 56.7119 -9.63094 main 185 101 P_____________ AL021963 56.7119 -9.63094 EX 55 -4 18 131
1963232N11313 1963 71 NA NA BEULAH 1963-08-30 18:00:00 ET 56.0000 -8.50000 55 hurdat_atl main 98 11 O_____________ hurdat_atl AL021963 56.0000 -8.50000 EX 55 -4 18 142
1963232N11313 1963 71 NA NA BEULAH 1963-08-30 21:00:00 ET 55.3085 -7.64219 main 11 0 P_____________ AL021963 55.3085 -7.64219 EX 57 -4 17 150
1963232N11313 1963 71 NA NA BEULAH 1963-08-31 00:00:00 ET 54.5000 -7.00000 60 hurdat_atl main 0 0 O_____________ hurdat_atl AL021963 54.5000 -7.00000 EX 60 -4 19 159
1963232N11313 1963 71 NA NA BEULAH 1963-08-31 03:00:00 ET 53.4993 -6.46446 main 0 0 P_____________ AL021963 53.4993 -6.46446 EX 60 -4 21 163
1963232N11313 1963 71 NA NA BEULAH 1963-08-31 06:00:00 ET 52.5000 -6.00000 60 hurdat_atl main 20 13 O_____________ hurdat_atl AL021963 52.5000 -6.00000 EX 60 -4 19 162
1963232N11313 1963 71 NA NA BEULAH 1963-08-31 09:00:00 ET 51.6749 -5.50173 main 13 13 P_____________ AL021963 51.6749 -5.50173 EX 60 -4 16 158
1963232N11313 1963 71 NA NA BEULAH 1963-08-31 12:00:00 ET 51.0000 -5.00000 60 hurdat_atl main 35 0 O_____________ hurdat_atl AL021963 51.0000 -5.00000 EX 60 -4 14 153
1963232N11313 1963 71 NA NA BEULAH 1963-08-31 15:00:00 ET 50.4623 -4.50227 main 0 0 P_____________ AL021963 50.4623 -4.50227 EX 60 -4 12 148
1963232N11313 1963 71 NA NA BEULAH 1963-08-31 18:00:00 ET 50.0000 -4.00000 60 hurdat_atl main 26 26 O_____________ hurdat_atl AL021963 50.0000 -4.00000 EX 60 -4 12 147
1963232N11313 1963 71 NA NA BEULAH 1963-08-31 21:00:00 ET 49.4623 -3.49989 main 78 22 P_____________ AL021963 49.4623 -3.49989 EX 57 -4 12 147
1963232N11313 1963 71 NA NA BEULAH 1963-09-01 00:00:00 ET 49.0000 -3.00000 55 hurdat_atl main 23 11 O_____________ hurdat_atl AL021963 49.0000 -3.00000 EX 55 -4 10 140
1963232N11313 1963 71 NA NA BEULAH 1963-09-01 03:00:00 ET 48.6748 -2.50052 main 11 0 P_____________ AL021963 48.6748 -2.50052 EX 52 -4 8 127
1963232N11313 1963 71 NA NA BEULAH 1963-09-01 06:00:00 ET 48.5000 -2.00000 50 hurdat_atl main 0 0 O_____________ hurdat_atl AL021963 48.5000 -2.00000 EX 50 -4 7 110
1963232N11313 1963 71 NA NA BEULAH 1963-09-01 09:00:00 ET 48.4252 -1.46293 main 0 0 P_____________ AL021963 48.4252 -1.46293 EX 47 -4 7 90
1963232N11313 1963 71 NA NA BEULAH 1963-09-01 12:00:00 ET 48.5000 -1.00000 45 hurdat_atl main 0 0 O_____________ hurdat_atl AL021963 48.5000 -1.00000 EX 45 -4 6 63
1963232N11313 1963 71 NA NA BEULAH 1963-09-01 15:00:00 ET 48.6746 -0.712116 main 0 0 P_____________ AL021963 48.6746 -0.712116 EX 42 -4 6 34
1963232N11313 1963 71 NA NA BEULAH 1963-09-01 18:00:00 ET 49.0000 -0.500000 40 hurdat_atl main 0 0 O_____________ hurdat_atl AL021963 49.0000 -0.500000 EX 40 -4 8 25
1963232N11313 1963 71 NA NA BEULAH 1963-09-01 21:00:00 ET 49.4251 -0.177680 main 11 11 P_____________ AL021963 49.4251 -0.177680 EX 37 -4 10 18
1963232N11313 1963 71 NA NA BEULAH 1963-09-02 00:00:00 ET 50.0000 -6.52083e-12 35 hurdat_atl main 36 11 O_____________ hurdat_atl AL021963 50.0000 -0.00000 EX 35 -4 13 0
1963232N11313 1963 71 NA NA BEULAH 1963-09-02 03:00:00 ET 50.7126 -0.172518 main 11 0 P_____________ AL021963 50.7126 -0.172518 EX 32 -4 15 348
1963232N11313 1963 71 NA NA BEULAH 1963-09-02 06:00:00 ET 51.5000 -0.500000 30 hurdat_atl main 0 0 O_____________ hurdat_atl AL021963 51.5000 -0.500000 EX 30 -4 16 346
1963232N11313 1963 71 NA NA BEULAH 1963-09-02 09:00:00 ET 52.2876 -0.822266 main 0 0 P_____________ AL021963 52.2876 -0.822266 EX 30 -4 15 348
1963232N11313 1963 71 NA NA BEULAH 1963-09-02 12:00:00 ET 53.0000 -1.00000 30 hurdat_atl main 0 0 O_____________ hurdat_atl AL021963 53.0000 -1.00000 EX 30 -4 12 0
1963232N11313 1963 71 NA NA BEULAH 1963-09-02 15:00:00 ET 53.5376 -0.827313 main 0 0 P_____________ AL021963 53.5376 -0.827313 EX 30 -4 10 17
1963232N11313 1963 71 NA NA BEULAH 1963-09-02 18:00:00 ET 54.0000 -0.500000 30 hurdat_atl main 0 0 O_____________ hurdat_atl AL021963 54.0000 -0.500000 EX 30 -4 10 18
1963232N11313 1963 71 NA NA BEULAH 1963-09-02 21:00:00 ET 54.5371 -0.286694 main 19 19 P_____________ AL021963 54.5371 -0.286694 EX 30 -4 10 16
1963232N11313 1963 71 NA NA BEULAH 1963-09-03 00:00:00 ET 55.0000 -1.06349e-10 30 hurdat_atl main 67 67 O_____________ hurdat_atl AL021963 55.0000 -0.00000 EX 30 -4 9 30
1963232N11313 1963 71 NA NA BEULAH 1963-09-03 03:00:00 ET 55.2877 0.463329 main 112 112 P_____________ AL021963 55.2877 0.463329 EX 30 -4 8 49
1963232N11313 1963 71 NA NA BEULAH 1963-09-03 06:00:00 ET 55.5000 1.00000 30 hurdat_atl main 150 150 O_____________ hurdat_atl AL021963 55.5000 1.00000 EX 30 -4 8 53
1963232N11313 1963 71 NA NA BEULAH 1963-09-03 09:00:00 ET 55.7502 1.53741 main 194 194 P_____________ AL021963 55.7502 1.53741 EX 30 -4 7 48
1963232N11313 1963 71 NA NA BEULAH 1963-09-03 12:00:00 ET 56.0000 2.00000 30 hurdat_atl main 228 228 O_____________ hurdat_atl AL021963 56.0000 2.00000 EX 30 -4 7 41
1963232N11313 1963 71 NA NA BEULAH 1963-09-03 15:00:00 ET 56.2497 2.30325 main 250 250 P_____________ AL021963 56.2497 2.30325 EX 30 -4 6 29
1963232N11313 1963 71 NA NA BEULAH 1963-09-03 18:00:00 ET 56.5000 2.50000 30 hurdat_atl main 272 272 O_____________ hurdat_atl AL021963 56.5000 2.50000 EX 30 -4 5 26
1963232N11313 1963 71 NA NA BEULAH 1963-09-03 21:00:00 ET 56.7125 2.70938 main 275 246 P_____________ AL021963 56.7125 2.70938 EX 30 -4 5 18
1963232N11313 1963 71 NA NA BEULAH 1963-09-04 00:00:00 ET 57.0000 2.80000 30 hurdat_atl main 246 220 O_____________ hurdat_atl AL021963 57.0000 2.80000 EX 30 -4 7 0
1963232N11313 1963 71 NA NA BEULAH 1963-09-04 03:00:00 ET 57.4250 2.70984 main 220 194 P_____________ AL021963 57.4250 2.70984 EX 30 -4 10 351
1963232N11313 1963 71 NA NA BEULAH 1963-09-04 06:00:00 ET 58.0000 2.50000 30 hurdat_atl main 194 186 O_____________ hurdat_atl AL021963 58.0000 2.50000 EX 30 -4 13 347
1963232N11313 1963 71 NA NA BEULAH 1963-09-04 09:00:00 ET 58.7125 2.16041 main 189 179 P_____________ AL021963 58.7125 2.16041 EX 30 -4 15 350
1963232N11313 1963 71 NA NA BEULAH 1963-09-04 12:00:00 ET 59.5000 2.00000 30 hurdat_atl main 179 159 O_____________ hurdat_atl AL021963 59.5000 2.00000 EX 30 -4 15 4
1963232N11313 1963 71 NA NA BEULAH 1963-09-04 15:00:00 ET 60.1755 2.38596 main 159 107 P_____________ AL021963 60.1755 2.38596 EX 30 -4 16 18
1963232N11313 1963 71 NA NA BEULAH 1963-09-04 18:00:00 ET 61.0000 3.00000 30 hurdat_atl main 107 87 O_____________ hurdat_atl AL021963 61.0000 3.00000 EX 30 -4 21 14
1963232N11313 1963 71 NA NA BEULAH 1963-09-04 21:00:00 ET 62.2494 3.46265 main 83 83 P_____________ AL021963 62.2494 3.46265 EX 30 -4 25 11
1963232N11313 1963 71 NA NA BEULAH 1963-09-05 00:00:00 ET 63.5000 4.00000 30 hurdat_atl main 159 159 O_____________ hurdat_atl AL021963 63.5000 4.00000 EX 30 -4 21 15
1963232N11313 1963 71 NA NA BEULAH 1963-09-05 03:00:00 ET 64.3250 4.71810 main 191 191 P_____________ AL021963 64.3250 4.71810 EX 30 -4 16 23
1963232N11313 1963 71 NA NA BEULAH 1963-09-05 06:00:00 ET 65.0000 5.50000 30 hurdat_atl main 236 236 O_____________ hurdat_atl AL021963 65.0000 5.50000 EX 30 -4 16 25
1963232N11313 1963 71 NA NA BEULAH 1963-09-05 09:00:00 ET 65.7501 6.28852 main 255 251 P_____________ AL021963 65.7501 6.28852 EX 27 -4 16 22
1963232N11313 1963 71 NA NA BEULAH 1963-09-05 12:00:00 ET 66.5000 7.00000 25 hurdat_atl main 256 250 O_____________ hurdat_atl AL021963 66.5000 7.00000 EX 25 -4 16 18
1963232N11313 1963 71 NA NA BEULAH 1963-09-05 15:00:00 ET 67.2869 7.54176 main 253 249 P_____________ AL021963 67.2869 7.54176 EX 25 -4 15 14
1963232N11313 1963 71 NA NA BEULAH 1963-09-05 18:00:00 ET 68.0000 8.00000 25 hurdat_atl main 266 264 O_____________ hurdat_atl AL021963 68.0000 8.00000 EX 25 -4 13 17
1963232N11313 1963 71 NA NA BEULAH 1963-09-05 21:00:00 ET 68.5377 8.57477 main 260 250 P_____________ AL021963 68.5377 8.57477 EX 25 -4 11 20
1963232N11313 1963 71 NA NA BEULAH 1963-09-06 00:00:00 ET 69.0000 9.00000 25 hurdat_atl main 253 251 O_____________ hurdat_atl AL021963 69.0000 9.00000 EX 25 -4 10 12
1963232N11313 1963 71 NA NA BEULAH 1963-09-06 03:00:00 ET 69.4995 9.14994 main 266 263 P_____________ AL021963 69.4995 9.14994 EX 25 -4 10 1
1963232N11313 1963 71 NA NA BEULAH 1963-09-06 06:00:00 ET 70.0000 9.00000 25 hurdat_atl main 286 286 O_____________ hurdat_atl AL021963 70.0000 9.00000 EX 25 -4 10 350
1963232N11313 1963 71 NA NA BEULAH 1963-09-06 09:00:00 ET 70.5369 8.65236 main 320 320 P_____________ AL021963 70.5369 8.65236 EX 27 -4 10 342
1963232N11313 1963 71 NA NA BEULAH 1963-09-06 12:00:00 ET 71.0000 8.00000 30 hurdat_atl main 371 371 O_____________ hurdat_atl AL021963 71.0000 8.00000 EX 30 -4 9 326
1963232N11313 1963 71 NA NA BEULAH 1963-09-06 15:00:00 ET 71.2880 7.07156 main 417 417 P_____________ AL021963 71.2880 7.07156 EX 30 -4 8 308
1963232N11313 1963 71 NA NA BEULAH 1963-09-06 18:00:00 ET 71.5000 6.00000 30 hurdat_atl main 461 461 O_____________ hurdat_atl AL021963 71.5000 6.00000 EX 30 -4 8 305
1963232N11313 1963 71 NA NA BEULAH 1963-09-06 21:00:00 ET 71.7495 4.99736 main 502 502 P_____________ AL021963 71.7495 4.99736 EX 30 -4 8 309
1963232N11313 1963 71 NA NA BEULAH 1963-09-07 00:00:00 ET 72.0000 4.00000 30 hurdat_atl main 549 549 O_____________ hurdat_atl AL021963 72.0000 4.00000 EX 30 -4 8 310
1963232N11313 1963 71 NA NA BEULAH 1963-09-07 03:00:00 ET 72.2879 2.92938 main 598 598 P_____________ AL021963 72.2879 2.92938 EX 30 -4 8 309
1963232N11313 1963 71 NA NA BEULAH 1963-09-07 06:00:00 ET 72.5000 2.00000 30 hurdat_atl main 614 614 O_____________ hurdat_atl AL021963 72.5000 2.00000 EX 30 -4 5 295
1963232N11313 1963 71 NA NA BEULAH 1963-09-07 09:00:00 ET 72.4991 1.41676 main 626 626 P_____________ AL021963 72.4991 1.41676 EX 30 -4 3 270
1963232N11313 1963 71 NA NA BEULAH 1963-09-07 12:00:00 ET 72.5000 1.00000 30 hurdat_atl main 634 625 O_____________ hurdat_atl AL021963 72.5000 1.00000 EX 30 -4 4 306
1963232N11313 1963 71 NA NA BEULAH 1963-09-07 15:00:00 ET 72.7127 0.430072 main 629 606 P_____________ AL021963 72.7127 0.430072 EX 30 -4 6 329
1963232N11313 1963 71 NA NA BEULAH 1963-09-07 18:00:00 ET 73.0000 7.98232e-11 30 hurdat_atl main 606 588 O_____________ hurdat_atl AL021963 73.0000 -0.00000 EX 30 -4 6 348
1963232N11313 1963 71 NA NA BEULAH 1963-09-07 21:00:00 ET 73.2871 -0.00435014 main 588 571 P_____________ AL021963 73.2871 -0.00435014 EX 30 -4 5 2
1963232N11313 1963 71 NA NA BEULAH 1963-09-08 00:00:00 ET 73.5000 4.73644e-11 30 hurdat_atl main 571 571 O_____________ hurdat_atl AL021963 73.5000 -0.00000 EX 30 -4 3 341
1963232N11313 1963 71 NA NA BEULAH 1963-09-08 03:00:00 ET 73.5358 -0.275794 main 576 558 P_____________ AL021963 73.5358 -0.275794 EX 30 -4 3 270
1963232N11313 1963 71 NA NA BEULAH 1963-09-08 06:00:00 ET 73.5000 -1.00000 30 hurdat_atl main 555 516 O_____________ hurdat_atl AL021963 73.5000 -1.00000 EX 30 -4 6 274
1963232N11313 1963 71 NA NA BEULAH 1963-09-08 09:00:00 ET 73.5742 -2.25030 main 513 470 P_____________ AL021963 73.5742 -2.25030 EX 27 -4 8 270
1963232N11313 1963 71 NA NA BEULAH 1963-09-08 12:00:00 ET 73.5000 -4.00000 25 hurdat_atl main 467 428 O_____________ hurdat_atl AL021963 73.5000 -4.00000 EX 25 -4 12 246
1963232N11313 1963 71 NA NA BEULAH 1963-09-08 15:00:00 ET 73.1041 -5.99651 main 427 406 P_____________ AL021963 73.1041 -5.99651 EX 25 -4 15 229
1963232N11313 1963 71 NA NA BEULAH 1963-09-08 18:00:00 ET 72.5000 -8.00000 25 hurdat_atl main 408 O_____________ hurdat_atl AL021963 72.5000 -8.00000 EX 25 -4 17 225

About IBTrACS Database

This database is a web-friendly format of International Best Track Archive for Climate Stewardship (IBTrACS), a global best track data archive curated by NOAA dating back to 1842.

Updated: 2021-12-01